createdAt,value
2022-09-06T00:00:15.941Z,41.74
2022-09-06T00:02:43.692Z,41.68
2022-09-06T00:05:11.877Z,41.49
2022-09-06T00:07:39.142Z,41.31
2022-09-06T00:10:07.034Z,41.15
2022-09-06T00:12:34.679Z,41.55
2022-09-06T00:15:01.488Z,41.42
2022-09-06T00:17:28.293Z,41.79
2022-09-06T00:19:55.203Z,41.79
2022-09-06T00:22:22.176Z,41.85
2022-09-06T00:24:49.385Z,42.46
2022-09-06T00:27:16.328Z,41.87
2022-09-06T00:29:43.112Z,42.11
2022-09-06T00:32:10.123Z,41.91
2022-09-06T00:34:36.965Z,42.11
2022-09-06T00:37:03.923Z,42.14
2022-09-06T00:39:30.707Z,42.33
2022-09-06T00:41:57.600Z,42.63
2022-09-06T00:44:24.319Z,42.21
2022-09-06T00:46:53.308Z,42.51
2022-09-06T00:49:36.438Z,42.17
2022-09-06T00:52:10.147Z,43.09
2022-09-06T00:54:37.689Z,42.79
2022-09-06T00:57:04.707Z,42.74
2022-09-06T00:59:34.761Z,42.12
2022-09-06T01:02:02.008Z,41.95
2022-09-06T01:04:49.242Z,41.99
2022-09-06T01:07:40.943Z,41.56
2022-09-06T01:10:31.868Z,42.74
2022-09-06T01:13:20.471Z,42.29
2022-09-06T01:16:20.810Z,42.54
2022-09-06T01:18:47.668Z,43.25
2022-09-06T01:21:28.624Z,42.94
2022-09-06T01:24:01.896Z,42.60
2022-09-06T01:26:56.675Z,43.30
2022-09-06T01:29:32.259Z,43.67
2022-09-06T01:32:40.244Z,42.90
2022-09-06T01:35:27.124Z,43.17
2022-09-06T01:37:55.659Z,42.68
2022-09-06T01:40:22.764Z,43.24
2022-09-06T01:42:51.144Z,43.43
2022-09-06T01:45:27.509Z,43.47
2022-09-06T01:48:10.780Z,43.54
2022-09-06T01:50:57.370Z,43.23
2022-09-06T01:53:50.535Z,42.82
2022-09-06T01:56:37.942Z,43.10
2022-09-06T01:59:20.817Z,43.92
2022-09-06T02:02:08.580Z,43.84
2022-09-06T02:04:38.179Z,43.67
2022-09-06T02:07:15.537Z,43.68
2022-09-06T02:09:47.024Z,43.58
2022-09-06T02:12:17.109Z,43.14
2022-09-06T02:14:49.989Z,43.16
2022-09-06T02:17:23.817Z,43.41
2022-09-06T02:20:16.469Z,43.43
2022-09-06T02:22:46.845Z,43.04
2022-09-06T02:25:22.558Z,42.98
2022-09-06T02:27:49.782Z,43.68
2022-09-06T02:30:17.717Z,43.27
2022-09-06T02:32:50.931Z,43.43
2022-09-06T02:35:17.953Z,43.35
2022-09-06T02:37:45.191Z,43.87
2022-09-06T02:40:12.678Z,43.93
2022-09-06T02:42:40.207Z,44.33
2022-09-06T02:45:07.849Z,43.87
2022-09-06T02:47:34.567Z,44.25
2022-09-06T02:50:01.565Z,44.37
2022-09-06T02:52:28.327Z,44.63
2022-09-06T02:54:55.247Z,44.82
2022-09-06T02:57:21.948Z,44.60
2022-09-06T02:59:48.810Z,44.04
2022-09-06T03:02:15.989Z,43.81
2022-09-06T03:04:42.832Z,44.60
2022-09-06T03:07:09.686Z,44.25
2022-09-06T03:09:36.494Z,44.43
2022-09-06T03:12:03.947Z,44.44
2022-09-06T03:14:30.683Z,44.18
2022-09-06T03:16:57.709Z,45.13
2022-09-06T03:19:24.480Z,45.12
2022-09-06T03:21:51.483Z,45.02
2022-09-06T03:24:18.292Z,44.60
2022-09-06T03:26:45.027Z,44.87
2022-09-06T03:29:12.004Z,45.03
2022-09-06T03:31:38.777Z,45.03
2022-09-06T03:34:10.302Z,45.06
2022-09-06T03:36:37.972Z,44.94
2022-09-06T03:39:04.799Z,44.80
2022-09-06T03:41:31.670Z,44.98
2022-09-06T03:43:58.451Z,45.37
2022-09-06T03:46:25.362Z,45.68
2022-09-06T03:48:52.136Z,45.36
2022-09-06T03:51:18.942Z,45.53
2022-09-06T03:53:45.863Z,45.48
2022-09-06T03:56:12.793Z,45.27
2022-09-06T03:58:39.519Z,45.74
2022-09-06T04:01:11.397Z,45.63
2022-09-06T04:03:39.062Z,46.79
2022-09-06T04:06:07.091Z,46.12
2022-09-06T04:08:35.634Z,45.65
2022-09-06T04:11:02.466Z,46.53
2022-09-06T04:13:30.176Z,46.93
2022-09-06T04:15:57.630Z,46.07
2022-09-06T04:18:25.042Z,45.66
2022-09-06T04:20:53.335Z,45.35
2022-09-06T04:23:20.508Z,45.19
2022-09-06T04:25:48.899Z,45.58
2022-09-06T04:28:18.273Z,45.77
2022-09-06T04:30:57.426Z,45.81
2022-09-06T04:33:27.044Z,45.96
2022-09-06T04:35:56.534Z,45.90
2022-09-06T04:38:24.179Z,45.40
2022-09-06T04:40:51.034Z,45.76
2022-09-06T04:43:18.308Z,45.58
2022-09-06T04:45:45.521Z,45.55
2022-09-06T04:48:12.470Z,45.94
2022-09-06T04:50:39.255Z,45.73
2022-09-06T04:53:07.054Z,45.71
2022-09-06T04:55:34.748Z,45.73
2022-09-06T04:58:01.647Z,46.16
2022-09-06T05:00:30.273Z,47.13
2022-09-06T05:02:57.491Z,45.95
2022-09-06T05:05:25.144Z,46.37
2022-09-06T05:07:53.186Z,46.48
2022-09-06T05:10:21.159Z,46.29
2022-09-06T05:12:49.615Z,45.81
2022-09-06T05:15:18.220Z,46.01
2022-09-06T05:17:45.091Z,46.53
2022-09-06T05:20:13.012Z,46.36
2022-09-06T05:22:41.117Z,47.14
2022-09-06T05:25:09.748Z,47.39
2022-09-06T05:27:36.807Z,46.96
2022-09-06T05:30:04.279Z,47.32
2022-09-06T05:32:31.271Z,48.08
2022-09-06T05:34:57.999Z,46.60
2022-09-06T05:37:24.919Z,47.09
2022-09-06T05:39:52.208Z,46.37
2022-09-06T05:42:19.548Z,45.69
2022-09-06T05:44:46.749Z,45.90
2022-09-06T05:47:13.835Z,44.90
2022-09-06T05:49:41.703Z,45.26
2022-09-06T05:52:10.447Z,45.40
2022-09-06T05:54:37.411Z,45.54
2022-09-06T05:57:04.416Z,45.32
2022-09-06T05:59:31.219Z,45.24
2022-09-06T06:01:58.220Z,45.52
2022-09-06T06:04:24.990Z,46.15
2022-09-06T06:06:53.014Z,46.45
2022-09-06T06:09:19.790Z,47.14
2022-09-06T06:11:46.723Z,46.69
2022-09-06T06:14:13.525Z,45.91
2022-09-06T06:16:40.556Z,44.70
2022-09-06T06:19:07.371Z,46.90
2022-09-06T06:21:35.079Z,45.86
2022-09-06T06:24:04.132Z,44.44
2022-09-06T06:26:33.962Z,45.21
2022-09-06T06:29:02.458Z,45.87
2022-09-06T06:31:30.865Z,45.21
2022-09-06T06:33:58.464Z,43.90
2022-09-06T06:36:30.890Z,44.23
2022-09-06T06:38:58.577Z,45.62
2022-09-06T06:41:28.795Z,47.02
2022-09-06T06:43:57.844Z,44.92
2022-09-06T06:46:27.848Z,43.56
2022-09-06T06:48:55.495Z,43.05
2022-09-06T06:51:26.018Z,42.23
2022-09-06T06:53:53.010Z,42.10
2022-09-06T06:56:28.531Z,43.05
2022-09-06T06:58:59.087Z,41.90
2022-09-06T07:01:28.064Z,41.23
2022-09-06T07:03:55.380Z,43.25
2022-09-06T07:09:09.778Z,41.98
2022-09-06T07:11:36.569Z,42.83
2022-09-06T07:14:03.846Z,41.55
2022-09-06T07:16:30.733Z,41.71
2022-09-06T07:18:57.753Z,42.35
2022-09-06T07:26:39.039Z,41.65
2022-09-06T07:29:07.663Z,41.66
2022-09-06T07:34:25.199Z,39.79
2022-09-06T07:36:56.300Z,40.54
2022-09-06T07:39:23.662Z,41.50
2022-09-06T07:41:50.522Z,40.87
2022-09-06T07:44:17.485Z,41.13
2022-09-06T07:46:44.366Z,40.77
2022-09-06T07:49:11.284Z,39.63
2022-09-06T07:51:38.374Z,39.15
2022-09-06T07:54:29.349Z,38.65
2022-09-06T07:56:53.888Z,39.38
2022-09-06T07:59:20.648Z,40.50
2022-09-06T08:01:48.315Z,40.64
2022-09-06T08:04:15.755Z,38.43
2022-09-06T08:09:36.231Z,38.11
2022-09-06T08:12:06.980Z,38.55
2022-09-06T08:14:35.075Z,37.72
2022-09-06T08:17:03.373Z,37.62
2022-09-06T08:19:30.319Z,37.64
2022-09-06T08:21:57.253Z,36.76
2022-09-06T08:24:24.052Z,36.15
2022-09-06T08:26:51.070Z,36.75
2022-09-06T08:29:18.932Z,37.13
2022-09-06T08:31:46.490Z,35.87
2022-09-06T08:34:14.262Z,36.64
2022-09-06T08:36:42.065Z,36.88
2022-09-06T08:39:10.203Z,35.88
2022-09-06T08:41:55.601Z,36.93
2022-09-06T08:44:55.279Z,35.10
2022-09-06T08:47:23.290Z,35.33
2022-09-06T08:50:06.826Z,35.54
2022-09-06T08:55:47.699Z,34.88
2022-09-06T08:58:39.745Z,35.50
2022-09-06T09:01:14.655Z,33.67
2022-09-06T09:03:44.679Z,32.94
2022-09-06T09:06:11.662Z,34.03
2022-09-06T09:09:05.912Z,33.02
2022-09-06T09:11:36.081Z,32.79
2022-09-06T09:14:09.031Z,32.54
2022-09-06T09:16:36.117Z,32.89
2022-09-06T09:19:05.344Z,34.87
2022-09-06T09:21:35.185Z,33.25
2022-09-06T09:24:06.103Z,33.03
2022-09-06T09:26:44.330Z,32.09
2022-09-06T09:29:13.949Z,31.60
2022-09-06T09:31:53.337Z,31.64
2022-09-06T09:34:47.897Z,30.97
2022-09-06T09:40:25.342Z,30.97
2022-09-06T09:42:55.031Z,31.60
2022-09-06T09:45:31.402Z,31.32
2022-09-06T09:48:16.836Z,31.07
2022-09-06T09:50:43.664Z,30.60
2022-09-06T09:53:14.418Z,29.76
2022-09-06T09:55:42.934Z,29.82
2022-09-06T09:58:24.323Z,30.26
2022-09-06T10:01:10.052Z,29.18
2022-09-06T10:09:19.299Z,27.98
2022-09-06T10:11:55.321Z,28.79
2022-09-06T10:14:27.375Z,29.99
2022-09-06T10:16:54.579Z,29.81
2022-09-06T10:19:41.234Z,28.69
2022-09-06T10:22:29.184Z,29.21
2022-09-06T10:25:32.983Z,29.81
2022-09-06T10:28:11.368Z,28.42
2022-09-06T10:30:56.007Z,28.88
2022-09-06T10:33:52.182Z,28.05
2022-09-06T10:36:28.424Z,28.10
2022-09-06T10:39:04.279Z,28.76
2022-09-06T10:41:49.508Z,27.16
2022-09-06T10:44:30.587Z,28.41
2022-09-06T10:47:10.935Z,28.26
2022-09-06T10:49:40.911Z,28.62
2022-09-06T10:52:12.003Z,27.65
2022-09-06T10:54:41.999Z,26.35
2022-09-06T11:00:13.658Z,27.09
2022-09-06T11:06:20.028Z,25.85
2022-09-06T11:09:12.220Z,25.38
2022-09-06T11:11:52.809Z,25.94
2022-09-06T11:14:23.877Z,23.49
2022-09-06T11:17:07.387Z,24.10
2022-09-06T11:20:10.536Z,24.52
2022-09-06T11:23:07.180Z,24.82
2022-09-06T11:25:49.051Z,23.97
2022-09-06T11:28:29.244Z,23.75
2022-09-06T11:30:58.088Z,23.21
2022-09-06T11:33:28.861Z,23.53
2022-09-06T11:36:29.255Z,23.25
2022-09-06T11:38:59.089Z,22.65
2022-09-06T11:41:32.618Z,22.53
2022-09-06T11:43:59.886Z,22.30
2022-09-06T11:46:36.009Z,23.48
2022-09-06T11:49:02.999Z,23.44
2022-09-06T11:51:42.041Z,23.31
2022-09-06T11:54:40.792Z,23.31
2022-09-06T11:57:16.196Z,23.23
2022-09-06T11:59:43.193Z,23.45
2022-09-06T12:02:39.059Z,22.88
2022-09-06T12:05:09.879Z,23.85
2022-09-06T12:07:38.999Z,21.64
2022-09-06T12:10:31.591Z,22.08
2022-09-06T12:12:58.979Z,23.09
2022-09-06T12:15:29.276Z,24.16
2022-09-06T12:17:57.547Z,24.91
2022-09-06T12:20:49.436Z,25.60
2022-09-06T12:23:34.600Z,25.10
2022-09-06T12:26:07.068Z,24.90
2022-09-06T12:28:42.836Z,25.01
2022-09-06T12:31:26.043Z,24.69
2022-09-06T12:33:57.229Z,24.42
2022-09-06T12:36:31.010Z,24.18
2022-09-06T12:39:12.166Z,24.83
2022-09-06T12:41:47.483Z,24.36
2022-09-06T12:44:16.636Z,24.49
2022-09-06T12:46:51.645Z,24.31
2022-09-06T12:49:23.368Z,24.31
2022-09-06T12:51:50.496Z,24.14
2022-09-06T12:54:26.333Z,24.54
2022-09-06T12:56:53.832Z,24.01
2022-09-06T12:59:24.560Z,25.18
2022-09-06T13:02:12.484Z,24.52
2022-09-06T13:04:47.052Z,25.22
2022-09-06T13:07:17.764Z,25.64
2022-09-06T13:09:47.191Z,25.65
2022-09-06T13:12:30.805Z,25.88
2022-09-06T13:15:01.420Z,24.81
2022-09-06T13:17:30.186Z,24.56
2022-09-06T13:20:02.473Z,24.57
2022-09-06T13:22:47.554Z,24.18
2022-09-06T13:25:21.131Z,24.61
2022-09-06T13:27:51.218Z,24.84
2022-09-06T13:30:30.212Z,24.78
2022-09-06T13:32:57.146Z,24.93
2022-09-06T13:35:26.358Z,25.34
2022-09-06T13:37:53.208Z,25.71
2022-09-06T13:41:09.726Z,26.02
2022-09-06T13:43:42.735Z,26.20
2022-09-06T13:46:12.421Z,25.36
2022-09-06T13:48:44.932Z,25.31
2022-09-06T13:51:12.138Z,24.81
2022-09-06T13:53:38.887Z,23.94
2022-09-06T13:56:08.609Z,23.87
2022-09-06T13:58:36.324Z,24.58
2022-09-06T14:01:08.606Z,24.49
2022-09-06T14:03:38.216Z,24.61
2022-09-06T14:06:05.107Z,24.19
2022-09-06T14:08:49.735Z,23.56
2022-09-06T14:11:21.379Z,23.51
2022-09-06T14:13:48.220Z,23.97
2022-09-06T14:16:15.374Z,24.49
2022-09-06T14:18:42.260Z,24.18
2022-09-06T14:21:09.297Z,24.69
2022-09-06T14:23:36.223Z,24.18
2022-09-06T14:26:04.607Z,23.93
2022-09-06T14:28:32.988Z,24.66
2022-09-06T14:31:14.138Z,24.40
2022-09-06T14:33:41.213Z,24.78
2022-09-06T14:36:10.814Z,24.33
2022-09-06T14:38:39.275Z,25.23
2022-09-06T14:41:07.764Z,24.63
2022-09-06T14:43:35.623Z,26.27
2022-09-06T14:46:07.721Z,27.20
2022-09-06T14:48:39.191Z,26.82
2022-09-06T14:51:20.889Z,26.88
2022-09-06T14:53:50.131Z,27.09
2022-09-06T14:56:17.061Z,26.97
2022-09-06T14:58:44.152Z,26.96
2022-09-06T15:01:19.430Z,27.16
2022-09-06T15:03:51.520Z,26.51
2022-09-06T15:06:20.949Z,28.85
2022-09-06T15:08:48.646Z,28.53
2022-09-06T15:11:27.649Z,28.58
2022-09-06T15:13:54.515Z,29.53
2022-09-06T15:16:21.412Z,29.70
2022-09-06T15:18:48.483Z,30.23
2022-09-06T15:21:16.818Z,30.47
2022-09-06T15:23:43.957Z,30.30
2022-09-06T15:26:13.815Z,30.08
2022-09-06T15:28:43.709Z,30.89
2022-09-06T15:31:11.789Z,30.41
2022-09-06T15:33:39.634Z,31.00
2022-09-06T15:36:09.611Z,31.57
2022-09-06T15:38:39.570Z,31.63
2022-09-06T15:41:08.796Z,31.41
2022-09-06T15:43:37.276Z,31.15
2022-09-06T15:46:04.636Z,31.06
2022-09-06T15:48:41.223Z,31.01
2022-09-06T15:51:08.642Z,31.56
2022-09-06T15:53:35.416Z,31.32
2022-09-06T15:56:03.078Z,31.93
2022-09-06T15:58:30.603Z,31.68
2022-09-06T16:01:21.625Z,31.40
2022-09-06T16:03:54.420Z,31.21
2022-09-06T16:06:27.910Z,31.88
2022-09-06T16:08:58.818Z,31.85
2022-09-06T16:11:26.715Z,32.65
2022-09-06T16:13:55.048Z,32.22
2022-09-06T16:16:24.260Z,31.85
2022-09-06T16:18:54.436Z,32.21
2022-09-06T16:21:24.481Z,31.91
2022-09-06T16:23:57.519Z,31.91
2022-09-06T16:26:28.264Z,32.34
2022-09-06T16:28:55.303Z,32.27
2022-09-06T16:31:22.674Z,32.49
2022-09-06T16:33:50.328Z,32.16
2022-09-06T16:36:18.976Z,31.89
2022-09-06T16:38:46.921Z,32.20
2022-09-06T16:41:19.603Z,32.62
2022-09-06T16:43:47.940Z,32.67
2022-09-06T16:46:15.326Z,32.67
2022-09-06T16:48:43.535Z,32.18
2022-09-06T16:51:18.962Z,32.38
2022-09-06T16:53:47.264Z,32.70
2022-09-06T16:56:17.310Z,32.52
2022-09-06T16:58:54.624Z,32.15
2022-09-06T17:01:22.778Z,32.47
2022-09-06T17:03:50.717Z,32.43
2022-09-06T17:06:18.719Z,32.58
2022-09-06T17:08:45.677Z,32.46
2022-09-06T17:11:18.729Z,32.42
2022-09-06T17:13:48.572Z,32.82
2022-09-06T17:16:34.363Z,32.51
2022-09-06T17:19:02.421Z,32.87
2022-09-06T17:21:30.309Z,32.54
2022-09-06T17:24:03.125Z,31.98
2022-09-06T17:26:35.390Z,33.08
2022-09-06T17:29:02.601Z,32.61
2022-09-06T17:31:29.806Z,32.70
2022-09-06T17:33:56.696Z,32.38
2022-09-06T17:36:29.897Z,32.40
2022-09-06T17:39:10.175Z,32.79
2022-09-06T17:41:55.223Z,32.99
2022-09-06T17:44:25.521Z,32.44
2022-09-06T17:47:11.418Z,33.35
2022-09-06T17:49:39.583Z,33.78
2022-09-06T17:52:06.288Z,32.79
2022-09-06T17:54:33.459Z,33.21
2022-09-06T17:57:00.331Z,33.44
2022-09-06T17:59:30.430Z,33.46
2022-09-06T18:01:59.840Z,32.94
2022-09-06T18:04:26.871Z,32.87
2022-09-06T18:06:53.747Z,33.55
2022-09-06T18:09:21.495Z,33.22
2022-09-06T18:11:48.902Z,33.58
2022-09-06T18:14:18.392Z,33.69
2022-09-06T18:16:47.202Z,33.39
2022-09-06T18:19:15.330Z,33.20
2022-09-06T18:21:42.585Z,33.12
2022-09-06T18:24:10.384Z,33.10
2022-09-06T18:26:37.554Z,33.23
2022-09-06T18:29:07.280Z,33.14
2022-09-06T18:31:34.835Z,33.21
2022-09-06T18:34:02.181Z,32.87
2022-09-06T18:36:32.247Z,33.41
2022-09-06T18:39:04.932Z,33.32
2022-09-06T18:41:52.012Z,33.64
2022-09-06T18:44:19.629Z,33.52
2022-09-06T18:46:47.167Z,33.51
2022-09-06T18:49:15.325Z,33.50
2022-09-06T18:51:43.626Z,33.78
2022-09-06T18:54:11.710Z,33.71
2022-09-06T18:56:41.016Z,33.38
2022-09-06T18:59:08.121Z,34.11
2022-09-06T19:01:35.490Z,34.13
2022-09-06T19:04:04.553Z,33.85
2022-09-06T19:06:33.376Z,34.33
2022-09-06T19:09:09.215Z,34.83
2022-09-06T19:11:36.626Z,34.49
2022-09-06T19:14:04.877Z,34.89
2022-09-06T19:16:33.417Z,35.24
2022-09-06T19:19:08.652Z,35.49
2022-09-06T19:21:42.024Z,35.70
2022-09-06T19:24:13.960Z,35.71
2022-09-06T19:26:43.184Z,36.41
2022-09-06T19:29:18.200Z,36.26
2022-09-06T19:31:47.320Z,35.94
2022-09-06T19:34:15.732Z,36.24
2022-09-06T19:36:44.993Z,36.57
2022-09-06T19:39:14.935Z,36.71
2022-09-06T19:41:46.984Z,36.67
2022-09-06T19:44:16.489Z,36.51
2022-09-06T19:46:46.194Z,36.51
2022-09-06T19:49:16.049Z,36.48
2022-09-06T19:51:45.293Z,36.84
2022-09-06T19:54:12.966Z,37.48
2022-09-06T19:56:39.837Z,37.18
2022-09-06T19:59:08.867Z,37.16
2022-09-06T20:01:37.721Z,36.96
2022-09-06T20:04:08.577Z,37.15
2022-09-06T20:06:36.272Z,37.48
2022-09-06T20:09:06.496Z,37.08
2022-09-06T20:11:35.626Z,37.08
2022-09-06T20:14:02.610Z,37.67
2022-09-06T20:16:30.513Z,37.54
2022-09-06T20:19:01.800Z,37.55
2022-09-06T20:21:29.189Z,37.77
2022-09-06T20:23:57.850Z,38.12
2022-09-06T20:26:30.417Z,37.57
2022-09-06T20:28:59.612Z,37.66
2022-09-06T20:31:28.132Z,37.83
2022-09-06T20:33:55.797Z,38.71
2022-09-06T20:36:22.824Z,38.62
2022-09-06T20:38:50.061Z,38.96
2022-09-06T20:41:22.869Z,39.16
2022-09-06T20:43:59.679Z,39.10
2022-09-06T20:46:30.673Z,39.02
2022-09-06T20:49:01.915Z,39.53
2022-09-06T20:51:28.776Z,39.27
2022-09-06T20:54:00.591Z,39.36
2022-09-06T20:56:30.429Z,39.32
2022-09-06T20:59:02.725Z,39.40
2022-09-06T21:01:35.688Z,39.71
2022-09-06T21:04:05.886Z,39.17
2022-09-06T21:06:35.978Z,39.67
2022-09-06T21:09:11.046Z,40.75
2022-09-06T21:11:38.823Z,40.78
2022-09-06T21:14:06.324Z,40.75
2022-09-06T21:16:33.338Z,40.63
2022-09-06T21:19:05.375Z,40.46
2022-09-06T21:21:34.548Z,40.89
2022-09-06T21:24:02.690Z,40.50
2022-09-06T21:26:30.120Z,40.76
2022-09-06T21:28:57.152Z,40.71
2022-09-06T21:31:26.705Z,41.00
2022-09-06T21:33:55.880Z,40.61
2022-09-06T21:36:29.955Z,41.38
2022-09-06T21:38:59.816Z,41.86
2022-09-06T21:41:27.494Z,41.16
2022-09-06T21:43:56.821Z,41.48
2022-09-06T21:46:29.117Z,40.65
2022-09-06T21:49:05.254Z,41.10
2022-09-06T21:51:32.686Z,40.95
2022-09-06T21:54:03.428Z,40.94
2022-09-06T21:56:30.943Z,41.00
2022-09-06T21:58:58.780Z,41.65
2022-09-06T22:01:28.525Z,41.59
2022-09-06T22:03:55.813Z,41.54
2022-09-06T22:06:25.131Z,41.47
2022-09-06T22:08:52.256Z,42.15
2022-09-06T22:11:24.040Z,41.73
2022-09-06T22:13:51.609Z,41.56
2022-09-06T22:16:21.629Z,41.61
2022-09-06T22:18:49.644Z,41.49
2022-09-06T22:21:20.209Z,41.37
2022-09-06T22:24:01.571Z,41.36
2022-09-06T22:26:31.621Z,41.58
2022-09-06T22:29:00.901Z,41.91
2022-09-06T22:31:29.533Z,41.26
2022-09-06T22:33:57.041Z,41.22
2022-09-06T22:36:25.507Z,42.05
2022-09-06T22:38:57.111Z,42.36
2022-09-06T22:41:30.413Z,41.55
2022-09-06T22:43:59.964Z,41.47
2022-09-06T22:46:28.723Z,41.66
2022-09-06T22:48:55.710Z,42.34
2022-09-06T22:51:22.605Z,41.98
2022-09-06T22:53:49.896Z,42.30
2022-09-06T22:56:16.716Z,42.97
2022-09-06T22:58:43.866Z,42.66
2022-09-06T23:01:13.216Z,42.59
2022-09-06T23:03:41.885Z,42.62
2022-09-06T23:06:09.302Z,43.03
2022-09-06T23:08:38.166Z,43.15
2022-09-06T23:11:12.948Z,43.26
2022-09-06T23:13:43.793Z,43.01
2022-09-06T23:16:14.172Z,43.65
2022-09-06T23:18:41.491Z,42.87
2022-09-06T23:21:13.337Z,43.00
2022-09-06T23:23:41.627Z,43.34
2022-09-06T23:26:28.778Z,43.70
2022-09-06T23:28:56.955Z,43.06
2022-09-06T23:31:29.224Z,43.43
2022-09-06T23:33:57.803Z,43.04
2022-09-06T23:36:25.343Z,43.80
2022-09-06T23:38:52.344Z,43.45
2022-09-06T23:41:19.380Z,43.66
2022-09-06T23:43:46.162Z,44.12
2022-09-06T23:46:14.721Z,43.71
2022-09-06T23:48:43.568Z,43.41
2022-09-06T23:51:11.150Z,43.03
2022-09-06T23:53:38.697Z,42.92
2022-09-06T23:56:06.005Z,42.36
2022-09-06T23:58:33.155Z,42.65
